Presidente Prudente Airport
SBDN : now visible

Airfield :











YOU CAN JOIN US ON...

 
LOGIN :

Register | Disclaimer

   EN    FR    IT 

 









Legend :    VFR   Marginal VFR   IFR   Intensive IFR   Very Intensive IFR
Visi :
Ceiling :
>= 8 km
>= 3000ft
5 to 8 km
1000 to 3000 ft
1500m to 5 km
500 to 1000 ft
800 to 1500m
200 to 500 ft
< 800m
< 200 ft
Symbols :   Thunderstorms  Fog  Heavy snow  Heavy precipitations  Wind > 20 kt






- Airport Elevation : 1477 ft
- IATA code : PPB


SBDN - Presidente Prudente

CURRENT METAR :
  • 070800Z 33004KT 5000 -RA BKN001 BKN040 OVC083 19/18 Q1015

EXPIRED METARs :
  • 070700Z 00000KT 8000 -RA BKN003 BKN040 OVC083 19/19 Q1016
  • 070600Z 25006KT 8000 -RA BKN040 OVC083 19/19 Q1016

TAF TAF SBDN
Valid from the 07 at 06:00 until the 07 at 18:00 UTC


070300Z 0706/0718 30005KT 9999 SCT030 TN23/0707Z TX33/0717Z
BECMG 0710/0712 9999 SCT030 FEW025TCU RMK PCZ



MET'MAP, your aeronautical weather chart ! - Copyright ORBIFLY December 2007 - Disclaimer

ORBIFLY MET'MAP TEAM :

Programming & Development : Alexandra Zaïnal
Concept & original design : Baudouin d'Aumeries
Assistance for programming : Marc-Olivier Méhu
Technical & hardware support : Manuel Goepfert

Contact : metmap@orbifly.com




SOURCES & CREDITS :

   NOAA       Earth
Advisory